Time;durP1;ratioP1;P1;durP2;ratioP2;P2;SDS_P1;SDS_P2;PMS_P1;PMS_P2;Temp;Humidity;BMP_temperature;BMP_pressure;BME280_temperature;BME280_humidity;BME280_pressure;Samples;Min_cycle;Max_cycle;Signal;HPM_P1;HPM_P2
2023/08/11 00:01:16;;;;;;;11.93;6.73;;;14.20;99.90;;;;;;5147715;28;20210;-46
2023/08/11 00:03:47;;;;;;;15.43;8.77;;;14.20;99.90;;;;;;5149120;28;20421;-47
2023/08/11 00:06:18;;;;;;;10.57;7.07;;;14.10;99.90;;;;;;5151242;28;20256;-44
2023/08/11 00:08:48;;;;;;;8.27;6.47;;;14.20;99.90;;;;;;5148604;28;20188;-45
2023/08/11 00:11:19;;;;;;;10.63;6.73;;;14.10;99.90;;;;;;5134783;28;20256;-46
2023/08/11 00:13:50;;;;;;;12.73;6.97;;;14.10;99.90;;;;;;5150025;28;20186;-44
2023/08/11 00:16:21;;;;;;;10.63;7.30;;;14.10;99.90;;;;;;5148689;28;20192;-44
2023/08/11 00:18:52;;;;;;;11.17;7.43;;;14.10;99.90;;;;;;5147587;28;20905;-45
2023/08/11 00:21:23;;;;;;;23.53;7.37;;;14.00;99.90;;;;;;5153590;28;20296;-45
2023/08/11 00:23:54;;;;;;;13.47;6.30;;;14.00;99.90;;;;;;5147909;28;20552;-47
2023/08/11 00:26:24;;;;;;;10.37;6.30;;;14.00;99.90;;;;;;5142734;28;20461;-45
2023/08/11 00:28:55;;;;;;;16.93;7.07;;;14.00;99.90;;;;;;5149152;28;20225;-46
2023/08/11 00:31:27;;;;;;;9.30;7.17;;;14.00;99.90;;;;;;5149346;28;20213;-46
2023/08/11 00:33:57;;;;;;;15.33;7.20;;;14.00;99.90;;;;;;5132144;28;21160;-45
2023/08/11 00:36:28;;;;;;;13.80;7.43;;;13.90;99.90;;;;;;5131178;28;20429;-44
2023/08/11 00:39:00;;;;;;;10.83;7.30;;;13.90;99.90;;;;;;5148060;28;20181;-45
2023/08/11 00:41:30;;;;;;;10.63;6.70;;;13.90;99.90;;;;;;5145417;28;20217;-46
2023/08/11 00:44:01;;;;;;;13.33;6.70;;;13.90;99.90;;;;;;5120179;28;20433;-45
2023/08/11 00:46:32;;;;;;;14.23;7.17;;;13.90;99.90;;;;;;5133871;28;20217;-46
2023/08/11 00:49:03;;;;;;;9.33;6.13;;;13.90;99.90;;;;;;5130092;28;20198;-46
2023/08/11 00:51:34;;;;;;;10.57;5.70;;;13.90;99.90;;;;;;5151552;28;20972;-46
2023/08/11 00:54:06;;;;;;;10.10;6.67;;;13.90;99.90;;;;;;5149164;28;20433;-46
2023/08/11 00:56:44;;;;;;;9.10;6.80;;;13.80;99.90;;;;;;5149600;28;20197;-45
2023/08/11 00:59:15;;;;;;;10.67;7.00;;;13.80;99.90;;;;;;5148687;28;20444;-45
2023/08/11 01:01:46;;;;;;;10.17;6.20;;;13.80;99.90;;;;;;5149911;28;20468;-45
2023/08/11 01:04:17;;;;;;;13.77;7.00;;;13.80;99.90;;;;;;5146325;28;20449;-45
2023/08/11 01:07:01;;;;;;;12.23;6.80;;;13.80;99.90;;;;;;5150552;28;20189;-45
2023/08/11 01:09:49;;;;;;;8.63;6.07;;;13.80;99.90;;;;;;5147131;28;20212;-46
2023/08/11 01:12:47;;;;;;;14.57;7.20;;;13.80;99.90;;;;;;5149581;28;20476;-46
2023/08/11 01:15:30;;;;;;;11.90;6.40;;;13.70;99.90;;;;;;5143405;28;20445;-45
2023/08/11 01:18:04;;;;;;;10.17;6.27;;;13.80;99.90;;;;;;5146625;28;20431;-44
2023/08/11 01:20:35;;;;;;;7.23;5.93;;;13.80;99.90;;;;;;5141842;28;20472;-45
2023/08/11 01:23:08;;;;;;;11.60;6.17;;;13.70;99.90;;;;;;5147725;28;20433;-45
2023/08/11 01:25:40;;;;;;;13.40;6.33;;;13.80;99.90;;;;;;5147365;28;20437;-46
2023/08/11 01:28:10;;;;;;;10.93;7.03;;;13.70;99.90;;;;;;5147521;28;20441;-45
2023/08/11 01:30:41;;;;;;;13.00;7.40;;;13.70;99.90;;;;;;5128485;28;20481;-46
2023/08/11 01:33:12;;;;;;;12.70;7.10;;;13.70;99.90;;;;;;5132151;28;20201;-45
2023/08/11 01:35:44;;;;;;;7.90;5.80;;;13.70;99.90;;;;;;5142721;28;20205;-46
2023/08/11 01:38:14;;;;;;;11.93;6.43;;;13.70;99.90;;;;;;5144756;28;20254;-45
2023/08/11 01:40:46;;;;;;;11.33;6.40;;;13.60;99.90;;;;;;5145843;28;20465;-46
2023/08/11 01:43:18;;;;;;;11.10;6.17;;;13.60;99.90;;;;;;5146668;28;20193;-45
2023/08/11 01:45:49;;;;;;;10.47;6.90;;;13.60;99.90;;;;;;5146938;28;20947;-47
2023/08/11 01:48:21;;;;;;;11.37;6.17;;;13.60;99.90;;;;;;5144787;28;20444;-44
2023/08/11 01:50:52;;;;;;;10.87;6.20;;;13.60;99.90;;;;;;5150117;28;20504;-45
2023/08/11 01:53:23;;;;;;;13.20;6.97;;;13.50;99.90;;;;;;5131867;28;20881;-44
2023/08/11 01:55:55;;;;;;;10.40;6.13;;;13.50;99.90;;;;;;5136445;28;20500;-46
2023/08/11 01:58:26;;;;;;;9.10;7.10;;;13.50;99.90;;;;;;5132887;28;20174;-45
2023/08/11 02:00:57;;;;;;;12.03;7.20;;;13.50;99.90;;;;;;5145613;28;20544;-45
2023/08/11 02:03:27;;;;;;;18.67;7.27;;;13.50;99.90;;;;;;5130420;28;20532;-45
2023/08/11 02:05:58;;;;;;;11.07;5.73;;;13.50;99.90;;;;;;5145634;28;20225;-45
2023/08/11 02:08:29;;;;;;;10.40;6.50;;;13.50;99.90;;;;;;5129805;28;20277;-45
2023/08/11 02:11:00;;;;;;;10.57;6.33;;;13.60;99.90;;;;;;5144845;28;20468;-45
2023/08/11 02:13:31;;;;;;;7.83;7.00;;;13.60;99.90;;;;;;5140529;28;20178;-45
2023/08/11 02:16:01;;;;;;;9.43;6.30;;;13.70;99.90;;;;;;5143785;28;20193;-45
2023/08/11 02:18:32;;;;;;;7.20;5.83;;;13.70;99.90;;;;;;5145929;28;20657;-46
2023/08/11 02:21:03;;;;;;;10.70;6.83;;;13.80;99.90;;;;;;5148555;28;20674;-46
2023/08/11 02:23:33;;;;;;;12.53;7.70;;;13.80;99.90;;;;;;5133277;28;20185;-45
2023/08/11 02:26:05;;;;;;;9.40;6.20;;;13.90;99.90;;;;;;5148872;28;20193;-45
2023/08/11 02:28:36;;;;;;;8.90;6.00;;;13.90;99.90;;;;;;5149136;28;20645;-45
2023/08/11 02:31:10;;;;;;;12.33;7.03;;;13.90;99.90;;;;;;5130304;28;20544;-45
2023/08/11 02:33:41;;;;;;;8.57;5.73;;;14.00;99.90;;;;;;5143278;28;20185;-46
2023/08/11 02:36:13;;;;;;;8.13;6.00;;;14.00;99.90;;;;;;5146278;28;20479;-45
2023/08/11 02:38:44;;;;;;;8.20;6.17;;;14.10;99.90;;;;;;5145356;28;20178;-46
2023/08/11 02:41:15;;;;;;;12.03;6.53;;;14.10;99.90;;;;;;5146387;28;20476;-45
2023/08/11 02:43:46;;;;;;;7.00;6.30;;;14.10;99.90;;;;;;5148772;28;20273;-45
2023/08/11 02:46:16;;;;;;;6.90;6.30;;;14.20;99.90;;;;;;5150731;28;20189;-45
2023/08/11 02:48:47;;;;;;;21.27;6.77;;;14.20;99.90;;;;;;5145715;28;20374;-47
2023/08/11 02:51:19;;;;;;;13.67;6.63;;;14.30;99.90;;;;;;5147296;28;20237;-46
2023/08/11 02:53:49;;;;;;;12.80;6.80;;;14.30;99.90;;;;;;5144690;28;20977;-45
2023/08/11 02:56:21;;;;;;;10.37;7.47;;;14.30;99.90;;;;;;5141959;28;20447;-46
2023/08/11 02:58:52;;;;;;;8.90;5.67;;;14.40;99.90;;;;;;5143883;28;20626;-45
2023/08/11 03:01:25;;;;;;;8.50;6.30;;;14.40;99.90;;;;;;5143601;28;21088;-45
2023/08/11 03:03:56;;;;;;;10.00;6.33;;;14.40;99.90;;;;;;5142272;28;20421;-45
2023/08/11 03:06:27;;;;;;;7.53;5.97;;;14.50;99.90;;;;;;5142831;28;20437;-45
2023/08/11 03:08:57;;;;;;;13.07;6.90;;;14.50;99.90;;;;;;5130891;28;20816;-45
2023/08/11 03:11:29;;;;;;;14.57;7.70;;;14.50;99.90;;;;;;5142766;28;20476;-46
2023/08/11 03:14:00;;;;;;;16.20;7.00;;;14.50;99.90;;;;;;5144710;28;20177;-45
2023/08/11 03:16:32;;;;;;;8.73;6.40;;;14.60;99.90;;;;;;5147897;28;20782;-45
2023/08/11 03:19:03;;;;;;;11.10;7.07;;;14.60;99.90;;;;;;5140231;28;20202;-45
2023/08/11 03:21:34;;;;;;;8.77;6.90;;;14.70;99.90;;;;;;5150264;28;20989;-45
2023/08/11 03:24:05;;;;;;;10.90;7.40;;;14.70;99.90;;;;;;5131285;28;20471;-44
2023/08/11 03:26:36;;;;;;;12.83;7.20;;;14.70;99.90;;;;;;5127373;28;20185;-44
2023/08/11 03:29:07;;;;;;;11.70;6.10;;;14.70;99.90;;;;;;5130875;28;20472;-46
2023/08/11 03:31:38;;;;;;;11.70;6.37;;;14.70;99.90;;;;;;5150330;28;20509;-45
2023/08/11 03:34:09;;;;;;;8.80;5.90;;;14.80;99.90;;;;;;5149446;28;20593;-45
2023/08/11 03:36:40;;;;;;;14.07;6.00;;;14.70;99.90;;;;;;5149719;28;20432;-44
2023/08/11 03:39:10;;;;;;;7.70;5.03;;;14.80;99.90;;;;;;5144659;28;20555;-46
2023/08/11 03:41:41;;;;;;;9.80;7.07;;;14.80;99.90;;;;;;5145003;28;20288;-43
2023/08/11 03:44:12;;;;;;;9.10;6.77;;;14.80;99.90;;;;;;5143702;28;23436;-44
2023/08/11 03:46:43;;;;;;;21.93;9.73;;;14.80;99.90;;;;;;5145997;28;20201;-44
2023/08/11 03:49:13;;;;;;;16.70;7.87;;;14.80;99.90;;;;;;5130978;28;20249;-45
2023/08/11 03:51:44;;;;;;;11.30;7.03;;;14.80;99.90;;;;;;5151375;28;20218;-44
2023/08/11 03:54:15;;;;;;;22.20;13.43;;;14.80;99.90;;;;;;5142234;28;20616;-45
2023/08/11 03:56:46;;;;;;;28.37;14.80;;;14.90;99.90;;;;;;5148296;28;20174;-44
2023/08/11 03:59:17;;;;;;;33.47;19.70;;;14.90;99.90;;;;;;5149040;28;20177;-45
2023/08/11 04:01:47;;;;;;;28.77;16.30;;;15.00;99.90;;;;;;5130276;28;20210;-46
2023/08/11 04:04:18;;;;;;;19.43;12.00;;;15.00;99.90;;;;;;5139931;28;20178;-45
2023/08/11 04:06:51;;;;;;;11.13;8.43;;;15.00;99.90;;;;;;5151098;28;20647;-45
2023/08/11 04:09:22;;;;;;;15.80;7.33;;;15.00;99.90;;;;;;5150677;28;20288;-45
2023/08/11 04:11:53;;;;;;;9.43;7.40;;;15.00;99.90;;;;;;5151767;28;20469;-45
2023/08/11 04:14:24;;;;;;;7.67;5.57;;;15.00;99.90;;;;;;5149986;28;20181;-45
2023/08/11 04:16:55;;;;;;;7.90;6.17;;;15.10;99.90;;;;;;5127657;28;20190;-45
2023/08/11 04:19:26;;;;;;;15.33;6.50;;;15.10;99.90;;;;;;5148483;28;20444;-45
2023/08/11 04:21:56;;;;;;;8.30;5.50;;;15.20;99.90;;;;;;5146926;28;20232;-45
2023/08/11 04:24:27;;;;;;;15.43;5.20;;;15.20;99.90;;;;;;5146518;28;20665;-45
2023/08/11 04:26:58;;;;;;;8.40;5.10;;;15.40;99.90;;;;;;5143871;28;20193;-45
2023/08/11 04:29:29;;;;;;;9.37;5.60;;;15.50;99.90;;;;;;5145032;28;20277;-45
2023/08/11 04:32:04;;;;;;;10.80;6.20;;;15.60;99.90;;;;;;5145534;28;20224;-44
2023/08/11 04:34:35;;;;;;;8.90;5.60;;;15.70;99.90;;;;;;5143513;28;20189;-45
2023/08/11 04:37:06;;;;;;;5.70;5.20;;;15.70;99.90;;;;;;5148267;28;20428;-44
2023/08/11 04:39:36;;;;;;;14.83;6.40;;;15.70;99.90;;;;;;5147951;28;20181;-46
2023/08/11 04:42:07;;;;;;;7.10;6.00;;;15.60;99.90;;;;;;5145053;28;20285;-46
2023/08/11 04:44:38;;;;;;;13.90;7.30;;;15.60;99.90;;;;;;5139682;28;20186;-45
2023/08/11 04:47:09;;;;;;;14.53;6.13;;;15.70;99.90;;;;;;5135441;28;20720;-46
2023/08/11 04:49:41;;;;;;;6.10;5.40;;;15.80;99.90;;;;;;5143291;28;20433;-46
2023/08/11 04:52:12;;;;;;;8.03;5.33;;;16.00;99.90;;;;;;5137423;28;20476;-45
2023/08/11 04:54:43;;;;;;;9.67;6.70;;;16.30;99.90;;;;;;5148812;28;20825;-46
2023/08/11 04:57:14;;;;;;;10.10;5.87;;;17.40;99.90;;;;;;5146767;28;20182;-45
2023/08/11 04:59:45;;;;;;;9.67;5.50;;;18.40;99.90;;;;;;5147515;28;20184;-46
2023/08/11 05:02:16;;;;;;;9.37;5.20;;;18.40;99.90;;;;;;5122613;28;20515;-46
2023/08/11 05:04:47;;;;;;;9.73;5.73;;;18.20;99.90;;;;;;5151646;28;20878;-45
2023/08/11 05:07:18;;;;;;;13.43;5.57;;;17.80;99.90;;;;;;5132406;28;20186;-46
2023/08/11 05:09:49;;;;;;;7.80;5.97;;;17.40;99.90;;;;;;5129036;28;20178;-45
2023/08/11 05:12:20;;;;;;;7.90;6.00;;;17.50;99.90;;;;;;5129986;28;20480;-46
2023/08/11 05:14:51;;;;;;;10.73;6.17;;;18.00;99.90;;;;;;5129083;28;20448;-47
2023/08/11 05:17:21;;;;;;;11.00;6.30;;;18.30;99.90;;;;;;5129367;28;20209;-49
2023/08/11 05:19:52;;;;;;;5.40;4.90;;;18.60;99.90;;;;;;5114499;28;20190;-47
2023/08/11 05:22:23;;;;;;;9.97;5.87;;;19.30;99.90;;;;;;5107689;28;20214;-48
2023/08/11 05:24:54;;;;;;;7.93;5.13;;;20.20;99.90;;;;;;5140067;28;20643;-45
2023/08/11 05:27:25;;;;;;;9.73;5.60;;;22.50;99.90;;;;;;5145674;28;20444;-45
2023/08/11 05:29:56;;;;;;;14.30;5.10;;;24.90;98.40;;;;;;5140429;28;20236;-46
2023/08/11 05:32:27;;;;;;;5.40;4.40;;;26.80;81.70;;;;;;5141756;28;20701;-45
2023/08/11 05:34:58;;;;;;;8.13;4.70;;;27.60;68.40;;;;;;5142867;28;20440;-45
2023/08/11 05:37:29;;;;;;;5.13;4.63;;;26.60;66.30;;;;;;5144908;28;20178;-46
2023/08/11 05:40:00;;;;;;;4.93;4.30;;;25.30;69.00;;;;;;5131823;28;20468;-46
2023/08/11 05:42:31;;;;;;;4.87;4.37;;;24.20;72.30;;;;;;5130707;28;20273;-46
2023/08/11 05:45:03;;;;;;;7.00;3.47;;;23.60;75.30;;;;;;5141802;28;20186;-46
2023/08/11 05:47:34;;;;;;;19.20;5.27;;;23.20;77.00;;;;;;5144587;28;20264;-46
2023/08/11 05:50:06;;;;;;;4.60;3.93;;;22.90;77.60;;;;;;5136778;28;20545;-46
2023/08/11 05:52:36;;;;;;;7.80;4.40;;;22.40;78.20;;;;;;5129974;28;20205;-47
2023/08/11 05:55:07;;;;;;;4.10;3.73;;;22.00;79.10;;;;;;5140512;28;20950;-47
2023/08/11 05:57:38;;;;;;;14.90;6.03;;;21.80;80.30;;;;;;5146828;28;20552;-46
2023/08/11 06:00:09;;;;;;;5.37;4.80;;;21.70;81.20;;;;;;5143403;28;20572;-46
2023/08/11 06:02:40;;;;;;;7.40;4.40;;;21.80;80.80;;;;;;5146133;28;20281;-45
2023/08/11 06:05:15;;;;;;;4.73;4.33;;;22.00;80.90;;;;;;5143473;28;20950;-46
2023/08/11 06:07:46;;;;;;;10.63;4.50;;;22.30;79.40;;;;;;5144251;28;20193;-46
2023/08/11 06:10:16;;;;;;;7.03;3.60;;;22.50;78.30;;;;;;5145155;28;20976;-46
2023/08/11 06:12:47;;;;;;;4.10;3.23;;;22.80;77.90;;;;;;5131089;28;20209;-46
2023/08/11 06:15:18;;;;;;;6.17;3.47;;;22.80;76.50;;;;;;5121933;28;20193;-47
2023/08/11 06:17:50;;;;;;;4.63;3.40;;;22.40;78.20;;;;;;5142686;28;20190;-48
2023/08/11 06:20:21;;;;;;;7.20;3.70;;;22.00;79.70;;;;;;5144162;28;20201;-46
2023/08/11 06:22:52;;;;;;;7.70;4.10;;;21.90;79.80;;;;;;5145865;28;20437;-45
2023/08/11 06:25:23;;;;;;;8.83;4.07;;;21.90;78.70;;;;;;5147938;28;20440;-45
2023/08/11 06:27:54;;;;;;;3.63;3.23;;;21.90;78.20;;;;;;5132576;28;20261;-46
2023/08/11 06:30:30;;;;;;;3.47;3.10;;;21.90;77.60;;;;;;5149046;28;20231;-48
2023/08/11 06:33:00;;;;;;;6.00;3.50;;;21.80;77.80;;;;;;5145656;28;20703;-46
2023/08/11 06:35:32;;;;;;;3.77;3.47;;;21.80;78.60;;;;;;5147619;28;20433;-46
2023/08/11 06:38:03;;;;;;;6.50;3.93;;;21.90;77.30;;;;;;5139855;28;20183;-47
2023/08/11 06:40:34;;;;;;;6.50;3.80;;;21.80;77.90;;;;;;5140944;28;20448;-47
2023/08/11 06:43:06;;;;;;;13.17;3.60;;;21.60;79.20;;;;;;5144188;28;20320;-46
2023/08/11 06:45:37;;;;;;;3.27;3.03;;;21.50;78.10;;;;;;5141276;28;20444;-46
2023/08/11 06:48:08;;;;;;;4.70;2.87;;;21.70;79.00;;;;;;5138301;28;20434;-46
2023/08/11 06:50:38;;;;;;;3.30;2.90;;;22.00;78.30;;;;;;5125886;28;20285;-47
2023/08/11 06:53:09;;;;;;;4.00;2.50;;;22.00;76.80;;;;;;5131413;28;20277;-47
2023/08/11 06:55:40;;;;;;;6.27;2.93;;;22.00;77.30;;;;;;5119144;28;20681;-47
2023/08/11 06:58:10;;;;;;;4.17;2.90;;;22.00;76.70;;;;;;5125762;28;20185;-47
2023/08/11 07:00:41;;;;;;;4.17;3.43;;;21.80;76.50;;;;;;5128383;28;20224;-47
2023/08/11 07:03:12;;;;;;;4.03;3.13;;;21.70;76.40;;;;;;5140489;28;20198;-46
2023/08/11 07:05:42;;;;;;;7.60;3.27;;;21.50;76.40;;;;;;5142975;28;20189;-46
2023/08/11 07:08:13;;;;;;;3.97;2.83;;;21.40;77.00;;;;;;5136819;28;21207;-46
2023/08/11 07:10:44;;;;;;;7.07;2.40;;;21.30;77.70;;;;;;5137489;28;20236;-46
2023/08/11 07:13:15;;;;;;;9.50;2.80;;;21.30;77.50;;;;;;5143291;28;20186;-47
2023/08/11 07:15:45;;;;;;;4.90;3.90;;;21.10;77.30;;;;;;5143248;28;20282;-47
2023/08/11 07:18:17;;;;;;;7.30;4.13;;;21.10;78.30;;;;;;5134837;28;20182;-46
2023/08/11 07:20:48;;;;;;;3.17;2.57;;;21.20;78.90;;;;;;5135788;28;20218;-47
2023/08/11 07:23:18;;;;;;;5.13;2.37;;;21.20;78.20;;;;;;5136273;28;20441;-46
2023/08/11 07:25:49;;;;;;;3.70;2.33;;;21.40;78.20;;;;;;5126859;28;20181;-47
2023/08/11 07:28:20;;;;;;;4.63;3.00;;;21.60;77.70;;;;;;5137713;28;20245;-47
2023/08/11 07:30:51;;;;;;;2.00;1.90;;;21.80;78.00;;;;;;5117741;28;20213;-47
2023/08/11 07:33:22;;;;;;;5.13;2.40;;;22.10;77.50;;;;;;5135186;28;20289;-47
2023/08/11 07:35:52;;;;;;;4.10;2.50;;;22.60;76.30;;;;;;5125572;28;20459;-47
2023/08/11 07:38:24;;;;;;;4.10;3.80;;;23.10;73.80;;;;;;5128229;28;20241;-47
2023/08/11 07:40:55;;;;;;;4.80;2.93;;;23.70;71.90;;;;;;5122914;28;20214;-46
2023/08/11 07:43:26;;;;;;;7.13;2.80;;;24.10;69.60;;;;;;5144911;28;20437;-46
2023/08/11 07:45:57;;;;;;;11.37;3.00;;;24.50;68.80;;;;;;5138258;28;20197;-48
2023/08/11 07:48:28;;;;;;;2.67;2.50;;;24.90;67.20;;;;;;5147909;28;20190;-46
2023/08/11 07:50:58;;;;;;;12.20;2.03;;;25.40;64.80;;;;;;5136386;28;20216;-46
2023/08/11 07:53:31;;;;;;;6.30;2.60;;;25.50;62.00;;;;;;5139953;28;20265;-47
2023/08/11 07:56:03;;;;;;;2.63;2.47;;;25.70;60.50;;;;;;5138187;28;20189;-46
2023/08/11 07:58:34;;;;;;;3.83;2.43;;;26.10;59.70;;;;;;5132513;28;20429;-47
2023/08/11 08:01:06;;;;;;;2.30;2.10;;;27.00;56.80;;;;;;5146167;28;20461;-47
2023/08/11 08:03:37;;;;;;;2.03;1.70;;;27.70;54.60;;;;;;5132901;28;20229;-47
2023/08/11 08:06:07;;;;;;;2.03;1.30;;;29.20;51.20;;;;;;5127795;28;20497;-48
2023/08/11 08:08:39;;;;;;;3.93;2.27;;;29.80;48.20;;;;;;5145184;28;20239;-46
2023/08/11 08:11:09;;;;;;;2.70;1.50;;;29.90;47.10;;;;;;5142783;28;20206;-48
2023/08/11 08:13:40;;;;;;;6.00;1.47;;;30.50;45.10;;;;;;5148565;28;20432;-47
2023/08/11 08:16:11;;;;;;;3.00;1.53;;;31.40;43.50;;;;;;5147708;28;20181;-48
2023/08/11 08:18:42;;;;;;;2.40;1.77;;;32.90;40.70;;;;;;5146922;28;20185;-47
2023/08/11 08:21:13;;;;;;;2.53;1.93;;;34.20;37.40;;;;;;5137392;28;20742;-49
2023/08/11 08:23:44;;;;;;;4.23;1.53;;;35.50;34.40;;;;;;5128384;28;20271;-47
2023/08/11 08:26:15;;;;;;;1.83;1.30;;;36.80;31.80;;;;;;5146117;28;20288;-47
2023/08/11 08:28:46;;;;;;;7.00;1.67;;;37.20;31.00;;;;;;5142701;28;20621;-48
2023/08/11 08:31:16;;;;;;;1.75;1.65;;;37.40;28.90;;;;;;5146519;28;20240;-46
2023/08/11 08:33:47;;;;;;;2.30;1.47;;;37.10;29.50;;;;;;5129593;28;20177;-48
2023/08/11 08:36:18;;;;;;;3.42;1.60;;;36.80;29.50;;;;;;5133067;28;20197;-48
2023/08/11 08:38:48;;;;;;;1.67;1.10;;;36.70;29.60;;;;;;5138143;28;20189;-47
2023/08/11 08:41:28;;;;;;;6.17;2.10;;;36.60;29.70;;;;;;5135215;28;20227;-48
2023/08/11 08:44:01;;;;;;;1.80;1.30;;;36.10;29.50;;;;;;5143321;28;20185;-47
2023/08/11 08:46:32;;;;;;;1.63;1.53;;;35.30;31.00;;;;;;5134691;28;20189;-48
2023/08/11 08:49:08;;;;;;;6.20;1.27;;;34.90;31.10;;;;;;5134287;28;20208;-47
2023/08/11 08:51:40;;;;;;;1.57;1.30;;;34.20;31.60;;;;;;5138274;28;20252;-47
2023/08/11 08:54:10;;;;;;;1.00;1.00;;;32.90;33.00;;;;;;5134835;28;20196;-48
2023/08/11 08:56:41;;;;;;;1.93;1.83;;;32.10;33.80;;;;;;5141873;28;20520;-47
2023/08/11 08:59:12;;;;;;;6.37;1.77;;;30.90;34.40;;;;;;5114525;28;20217;-47
2023/08/11 09:01:44;;;;;;;1.30;1.20;;;29.70;36.80;;;;;;5137072;28;20562;-47
2023/08/11 09:04:15;;;;;;;6.30;1.80;;;28.80;38.60;;;;;;5141654;28;20717;-48
2023/08/11 09:06:47;;;;;;;1.40;1.37;;;27.80;40.20;;;;;;5136359;28;20440;-48
2023/08/11 09:09:18;;;;;;;2.77;1.50;;;26.90;42.10;;;;;;5141918;28;20468;-46
2023/08/11 09:11:49;;;;;;;5.13;1.90;;;26.00;43.30;;;;;;5140747;28;20826;-46
2023/08/11 09:14:21;;;;;;;3.90;1.03;;;25.50;44.80;;;;;;5127913;28;20185;-47
2023/08/11 09:16:53;;;;;;;3.13;1.43;;;25.30;45.40;;;;;;5133521;28;20442;-46
2023/08/11 09:19:24;;;;;;;7.30;2.50;;;25.00;46.30;;;;;;5140147;28;20449;-47
2023/08/11 09:21:54;;;;;;;6.83;1.73;;;24.40;46.80;;;;;;5123866;28;20465;-45
2023/08/11 09:24:28;;;;;;;4.37;1.67;;;24.20;47.70;;;;;;5119086;28;20182;-47
2023/08/11 09:26:59;;;;;;;2.30;1.20;;;23.90;48.80;;;;;;5137846;28;20197;-45
2023/08/11 09:29:30;;;;;;;2.00;1.63;;;23.70;48.70;;;;;;5139048;28;20440;-47
2023/08/11 09:32:03;;;;;;;0.90;0.90;;;23.70;49.50;;;;;;5130611;28;20479;-46
2023/08/11 09:34:38;;;;;;;1.63;1.50;;;23.90;50.20;;;;;;5128869;28;20648;-46
2023/08/11 09:37:09;;;;;;;2.97;1.20;;;24.10;49.60;;;;;;5136851;28;20433;-46
2023/08/11 09:39:42;;;;;;;9.00;1.30;;;24.40;49.40;;;;;;5142657;28;20441;-46
2023/08/11 09:42:15;;;;;;;2.37;1.80;;;24.50;49.30;;;;;;5141221;28;20460;-47
2023/08/11 09:44:45;;;;;;;1.90;1.77;;;24.50;49.00;;;;;;5146217;28;20941;-47
2023/08/11 09:47:16;;;;;;;5.10;1.60;;;24.60;49.40;;;;;;5144035;28;20425;-48
2023/08/11 09:49:47;;;;;;;1.60;1.50;;;25.20;49.20;;;;;;5138940;28;20201;-47
2023/08/11 09:52:18;;;;;;;1.63;1.20;;;25.60;48.30;;;;;;5140437;28;20311;-47
2023/08/11 09:54:50;;;;;;;1.87;1.57;;;25.90;47.50;;;;;;5131121;28;20190;-47
2023/08/11 09:57:22;;;;;;;3.67;1.27;;;25.30;47.40;;;;;;5128372;28;20437;-46
2023/08/11 09:59:54;;;;;;;1.20;1.20;;;24.50;48.70;;;;;;5124207;28;20465;-48
2023/08/11 10:02:29;;;;;;;1.30;1.00;;;24.50;49.80;;;;;;5138818;28;21063;-46
2023/08/11 10:05:04;;;;;;;3.07;1.60;;;24.30;50.00;;;;;;5142029;28;20498;-46
2023/08/11 10:07:46;;;;;;;2.07;1.60;;;24.70;50.20;;;;;;5129795;28;20444;-46
2023/08/11 10:10:19;;;;;;;4.13;1.17;;;24.70;50.00;;;;;;5140318;28;20679;-48
2023/08/11 10:13:13;;;;;;;2.93;1.30;;;24.90;50.30;;;;;;5129137;28;20881;-48
2023/08/11 10:15:44;;;;;;;1.53;0.90;;;25.20;50.50;;;;;;5140923;28;20437;-46
2023/08/11 10:18:16;;;;;;;2.17;1.17;;;25.30;50.20;;;;;;5139614;28;21697;-46
2023/08/11 10:20:50;;;;;;;8.97;1.30;;;25.50;50.20;;;;;;5133980;28;20456;-45
2023/08/11 10:23:21;;;;;;;1.10;1.10;;;25.50;49.60;;;;;;5137754;28;20512;-47
2023/08/11 10:25:52;;;;;;;1.60;1.50;;;25.30;49.50;;;;;;5138056;28;20561;-47
2023/08/11 10:28:23;;;;;;;1.67;1.27;;;25.10;50.50;;;;;;5141064;28;20189;-48
2023/08/11 10:30:56;;;;;;;2.40;1.20;;;25.30;50.90;;;;;;5120349;28;20461;-48
2023/08/11 10:33:31;;;;;;;1.60;1.50;;;25.50;50.60;;;;;;5135283;28;20186;-47
2023/08/11 10:36:02;;;;;;;1.03;1.03;;;25.40;50.60;;;;;;5137748;28;21171;-47
2023/08/11 10:38:33;;;;;;;1.03;0.97;;;25.80;50.50;;;;;;5132913;28;20573;-47
2023/08/11 10:41:09;;;;;;;3.23;1.97;;;26.30;49.70;;;;;;5124587;28;20704;-46
2023/08/11 10:43:45;;;;;;;1.37;0.80;;;26.70;48.50;;;;;;5135308;28;20460;-47
2023/08/11 10:46:23;;;;;;;2.10;0.87;;;26.30;48.40;;;;;;5146189;28;20441;-47
2023/08/11 10:49:00;;;;;;;1.90;0.97;;;26.10;49.50;;;;;;5136916;28;20512;-48
2023/08/11 10:51:37;;;;;;;3.97;1.60;;;25.80;50.20;;;;;;5124344;28;20497;-48
2023/08/11 10:54:10;;;;;;;10.10;1.73;;;25.40;51.00;;;;;;5142888;28;20437;-46
2023/08/11 10:56:43;;;;;;;1.07;0.93;;;25.30;51.60;;;;;;5146206;28;20425;-47
2023/08/11 10:59:18;;;;;;;1.23;1.13;;;25.00;52.20;;;;;;5126262;28;20448;-48
2023/08/11 11:01:51;;;;;;;0.93;0.93;;;24.90;52.40;;;;;;5140244;28;20468;-47
2023/08/11 11:04:31;;;;;;;2.10;1.43;;;25.00;52.80;;;;;;5138229;28;20433;-47
2023/08/11 11:07:02;;;;;;;1.80;1.40;;;25.10;53.10;;;;;;5136543;28;20801;-47
2023/08/11 11:09:33;;;;;;;1.70;0.87;;;25.10;52.70;;;;;;5139634;28;20437;-47
2023/08/11 11:12:04;;;;;;;2.10;1.00;;;24.60;52.70;;;;;;5142202;28;20213;-48
2023/08/11 11:14:36;;;;;;;1.00;1.00;;;24.50;53.80;;;;;;5145530;28;20182;-47
2023/08/11 11:17:06;;;;;;;1.63;1.13;;;24.50;54.00;;;;;;5143563;28;20527;-47
2023/08/11 11:19:37;;;;;;;2.00;1.23;;;24.40;54.10;;;;;;5122621;28;21179;-46
2023/08/11 11:22:08;;;;;;;1.10;1.00;;;24.00;54.50;;;;;;5141570;28;20220;-46
2023/08/11 11:24:39;;;;;;;1.43;1.20;;;23.80;54.40;;;;;;5140836;28;20288;-49
2023/08/11 11:27:10;;;;;;;1.03;1.00;;;23.50;55.50;;;;;;5138565;28;20197;-45
2023/08/11 11:29:41;;;;;;;1.40;1.17;;;23.30;56.00;;;;;;5132237;28;20759;-46
2023/08/11 11:32:12;;;;;;;2.57;1.33;;;23.30;56.10;;;;;;5125715;28;20504;-46
2023/08/11 11:34:42;;;;;;;2.17;1.70;;;23.30;55.90;;;;;;5123759;28;21327;-47
2023/08/11 11:37:13;;;;;;;2.87;1.53;;;23.40;56.80;;;;;;5135594;28;20200;-48
2023/08/11 11:39:45;;;;;;;2.50;1.57;;;23.50;56.50;;;;;;5143970;28;20185;-46
2023/08/11 11:42:15;;;;;;;0.80;0.80;;;23.60;56.00;;;;;;5142371;28;20651;-48
2023/08/11 11:44:46;;;;;;;1.90;1.80;;;23.90;55.40;;;;;;5138839;28;20472;-46
2023/08/11 11:47:17;;;;;;;1.90;0.77;;;23.90;55.30;;;;;;5137128;28;20189;-45
2023/08/11 11:50:07;;;;;;;4.77;1.73;;;23.60;55.30;;;;;;5131393;28;20444;-48
2023/08/11 11:52:42;;;;;;;1.70;1.40;;;23.60;56.00;;;;;;5127585;28;20213;-46
2023/08/11 11:55:16;;;;;;;1.87;1.23;;;23.80;55.70;;;;;;5129270;28;21008;-47
2023/08/11 11:57:47;;;;;;;2.93;1.10;;;23.60;55.60;;;;;;5124735;28;20449;-46
2023/08/11 12:00:18;;;;;;;1.40;1.40;;;23.50;55.60;;;;;;5139157;28;20486;-46
2023/08/11 12:02:50;;;;;;;6.77;2.03;;;23.60;56.30;;;;;;5134201;28;20579;-47
2023/08/11 12:05:21;;;;;;;2.20;1.57;;;23.60;56.00;;;;;;5140216;28;20447;-46
2023/08/11 12:07:52;;;;;;;2.50;0.97;;;23.70;56.20;;;;;;5136231;28;20444;-46
2023/08/11 12:10:33;;;;;;;5.50;1.53;;;23.70;55.90;;;;;;5124932;28;20453;-48
2023/08/11 12:13:04;;;;;;;2.83;1.23;;;23.60;56.10;;;;;;5147652;28;20319;-46
2023/08/11 12:15:35;;;;;;;1.80;1.50;;;23.60;56.40;;;;;;5126329;28;20523;-47
2023/08/11 12:18:06;;;;;;;1.00;0.90;;;23.70;56.60;;;;;;5138160;28;20536;-49
2023/08/11 12:20:37;;;;;;;1.83;0.97;;;23.70;56.20;;;;;;5125936;28;20534;-47
2023/08/11 12:23:07;;;;;;;1.13;0.97;;;23.50;56.00;;;;;;5127455;28;20540;-47
2023/08/11 12:25:38;;;;;;;1.20;1.17;;;23.50;56.60;;;;;;5146058;28;20343;-46
2023/08/11 12:28:09;;;;;;;1.23;1.23;;;23.50;57.00;;;;;;5143535;28;20193;-46
2023/08/11 12:30:40;;;;;;;2.83;2.30;;;23.60;57.40;;;;;;5142433;28;20203;-47
2023/08/11 12:33:10;;;;;;;2.50;1.10;;;23.60;57.10;;;;;;5141117;28;20356;-47
2023/08/11 12:35:46;;;;;;;2.83;2.00;;;23.60;56.60;;;;;;5127641;28;20185;-46
2023/08/11 12:38:17;;;;;;;4.17;2.30;;;23.50;57.20;;;;;;5145238;28;20675;-47
2023/08/11 12:40:48;;;;;;;1.77;1.67;;;23.60;57.20;;;;;;5145484;28;20471;-46
2023/08/11 12:43:19;;;;;;;0.83;0.83;;;23.60;57.20;;;;;;5144600;28;20184;-47
2023/08/11 12:45:50;;;;;;;0.97;0.97;;;23.60;57.20;;;;;;5124640;28;20515;-47
2023/08/11 12:48:21;;;;;;;1.20;1.10;;;23.70;57.70;;;;;;5138955;28;20480;-46
2023/08/11 12:50:52;;;;;;;2.00;1.40;;;23.90;58.00;;;;;;5131110;28;20205;-46
2023/08/11 12:53:22;;;;;;;1.07;1.07;;;24.00;57.10;;;;;;5132180;28;20189;-47
2023/08/11 12:55:53;;;;;;;2.83;2.40;;;23.90;57.10;;;;;;5140706;28;20738;-47
2023/08/11 12:58:27;;;;;;;1.27;1.20;;;24.00;57.50;;;;;;5141927;28;20186;-49
2023/08/11 13:00:57;;;;;;;1.40;1.20;;;24.10;57.10;;;;;;5142351;28;20750;-47
2023/08/11 13:03:28;;;;;;;0.67;0.67;;;24.10;57.20;;;;;;5138411;28;20457;-48
2023/08/11 13:05:59;;;;;;;2.20;1.27;;;24.00;56.90;;;;;;5145550;28;20521;-49